sensor_id;sensor_type;location;lat;lon;timestamp;pressure;altitude;pressure_sealevel;temperature;humidity
40788;BME280;26497;52.494;7.546;2022-07-23T00:01:46;101224.66;;;19.84;69.36
40788;BME280;26497;52.494;7.546;2022-07-23T00:04:13;101235.94;;;19.64;69.91
40788;BME280;26497;52.494;7.546;2022-07-23T00:06:41;101230.75;;;19.58;70.89
40788;BME280;26497;52.494;7.546;2022-07-23T00:09:08;101233.97;;;19.71;70.31
40788;BME280;26497;52.494;7.546;2022-07-23T00:11:35;101241.44;;;19.59;70.96
40788;BME280;26497;52.494;7.546;2022-07-23T00:14:02;101246.97;;;19.52;71.34
40788;BME280;26497;52.494;7.546;2022-07-23T00:16:29;101254.09;;;19.53;71.57
40788;BME280;26497;52.494;7.546;2022-07-23T00:18:56;101249.22;;;19.67;71.37
40788;BME280;26497;52.494;7.546;2022-07-23T00:21:26;101245.75;;;19.95;70.53
40788;BME280;26497;52.494;7.546;2022-07-23T00:23:55;101241.59;;;20.15;69.17
40788;BME280;26497;52.494;7.546;2022-07-23T00:26:22;101247.97;;;20.11;69.12
40788;BME280;26497;52.494;7.546;2022-07-23T00:28:49;101238.47;;;20.00;69.79
40788;BME280;26497;52.494;7.546;2022-07-23T00:31:16;101245.28;;;20.11;69.55
40788;BME280;26497;52.494;7.546;2022-07-23T00:33:43;101237.28;;;20.09;69.35
40788;BME280;26497;52.494;7.546;2022-07-23T00:36:10;101230.44;;;20.00;69.80
40788;BME280;26497;52.494;7.546;2022-07-23T00:38:37;101242.53;;;20.12;69.38
40788;BME280;26497;52.494;7.546;2022-07-23T00:41:05;101239.28;;;20.02;70.06
40788;BME280;26497;52.494;7.546;2022-07-23T00:43:32;101235.53;;;20.08;69.95
40788;BME280;26497;52.494;7.546;2022-07-23T00:46:00;101228.69;;;20.28;68.49
40788;BME280;26497;52.494;7.546;2022-07-23T00:48:27;101233.41;;;20.19;68.50
40788;BME280;26497;52.494;7.546;2022-07-23T00:50:54;101230.28;;;20.05;68.70
40788;BME280;26497;52.494;7.546;2022-07-23T00:53:21;101236.09;;;19.89;69.23
40788;BME280;26497;52.494;7.546;2022-07-23T00:55:48;101231.78;;;19.84;69.52
40788;BME280;26497;52.494;7.546;2022-07-23T00:58:17;101233.63;;;19.82;69.71
40788;BME280;26497;52.494;7.546;2022-07-23T01:00:45;101229.03;;;19.87;69.05
40788;BME280;26497;52.494;7.546;2022-07-23T01:03:12;101231.22;;;19.74;69.66
40788;BME280;26497;52.494;7.546;2022-07-23T01:05:39;101221.78;;;19.60;70.09
40788;BME280;26497;52.494;7.546;2022-07-23T01:08:06;101221.91;;;19.56;70.22
40788;BME280;26497;52.494;7.546;2022-07-23T01:10:33;101221.81;;;19.59;69.94
40788;BME280;26497;52.494;7.546;2022-07-23T01:13:03;101218.13;;;19.63;69.22
40788;BME280;26497;52.494;7.546;2022-07-23T01:15:32;101218.00;;;19.68;68.61
40788;BME280;26497;52.494;7.546;2022-07-23T01:17:59;101213.88;;;19.56;69.28
40788;BME280;26497;52.494;7.546;2022-07-23T01:20:26;101216.69;;;19.51;69.36
40788;BME280;26497;52.494;7.546;2022-07-23T01:22:55;101201.41;;;19.56;68.96
40788;BME280;26497;52.494;7.546;2022-07-23T01:25:22;101202.25;;;19.57;68.32
40788;BME280;26497;52.494;7.546;2022-07-23T01:27:50;101199.31;;;19.66;67.77
40788;BME280;26497;52.494;7.546;2022-07-23T01:30:17;101195.25;;;19.53;68.26
40788;BME280;26497;52.494;7.546;2022-07-23T01:32:45;101190.16;;;19.43;68.42
40788;BME280;26497;52.494;7.546;2022-07-23T01:35:12;101201.13;;;19.34;68.59
40788;BME280;26497;52.494;7.546;2022-07-23T01:37:39;101204.88;;;19.27;68.80
40788;BME280;26497;52.494;7.546;2022-07-23T01:40:08;101207.72;;;19.22;68.83
40788;BME280;26497;52.494;7.546;2022-07-23T01:42:35;101207.19;;;19.09;69.33
40788;BME280;26497;52.494;7.546;2022-07-23T01:45:04;101198.50;;;19.01;69.16
40788;BME280;26497;52.494;7.546;2022-07-23T01:47:31;101195.16;;;18.91;69.17
40788;BME280;26497;52.494;7.546;2022-07-23T01:49:58;101199.03;;;18.79;68.81
40788;BME280;26497;52.494;7.546;2022-07-23T01:52:25;101194.75;;;18.72;68.64
40788;BME280;26497;52.494;7.546;2022-07-23T01:54:52;101192.16;;;18.69;68.29
40788;BME280;26497;52.494;7.546;2022-07-23T01:57:21;101195.84;;;18.65;68.08
40788;BME280;26497;52.494;7.546;2022-07-23T01:59:48;101189.81;;;18.56;68.09
40788;BME280;26497;52.494;7.546;2022-07-23T02:02:15;101197.28;;;18.42;68.54
40788;BME280;26497;52.494;7.546;2022-07-23T02:04:42;101198.44;;;18.32;69.07
40788;BME280;26497;52.494;7.546;2022-07-23T02:07:09;101194.91;;;18.30;69.00
40788;BME280;26497;52.494;7.546;2022-07-23T02:09:36;101192.59;;;18.16;69.16
40788;BME280;26497;52.494;7.546;2022-07-23T02:12:04;101183.69;;;18.15;69.04
40788;BME280;26497;52.494;7.546;2022-07-23T02:14:32;101175.63;;;18.18;68.94
40788;BME280;26497;52.494;7.546;2022-07-23T02:16:59;101172.19;;;18.13;68.89
40788;BME280;26497;52.494;7.546;2022-07-23T02:19:26;101174.28;;;18.00;69.00
40788;BME280;26497;52.494;7.546;2022-07-23T02:21:53;101169.31;;;17.83;69.59
40788;BME280;26497;52.494;7.546;2022-07-23T02:24:21;101179.13;;;17.81;69.85
40788;BME280;26497;52.494;7.546;2022-07-23T02:26:54;101176.63;;;17.73;70.28
40788;BME280;26497;52.494;7.546;2022-07-23T02:29:21;101176.88;;;17.62;70.39
40788;BME280;26497;52.494;7.546;2022-07-23T02:31:49;101168.94;;;17.58;70.60
40788;BME280;26497;52.494;7.546;2022-07-23T02:34:16;101173.38;;;17.59;70.34
40788;BME280;26497;52.494;7.546;2022-07-23T02:36:43;101176.34;;;17.45;70.78
40788;BME280;26497;52.494;7.546;2022-07-23T02:39:10;101169.53;;;17.30;71.31
40788;BME280;26497;52.494;7.546;2022-07-23T02:41:37;101171.44;;;17.23;71.55
40788;BME280;26497;52.494;7.546;2022-07-23T02:44:04;101171.56;;;17.18;71.54
40788;BME280;26497;52.494;7.546;2022-07-23T02:46:31;101177.84;;;17.14;71.47
40788;BME280;26497;52.494;7.546;2022-07-23T02:48:59;101179.63;;;17.14;71.66
40788;BME280;26497;52.494;7.546;2022-07-23T02:51:27;101184.88;;;17.18;71.56
40788;BME280;26497;52.494;7.546;2022-07-23T02:53:54;101183.19;;;17.13;71.65
40788;BME280;26497;52.494;7.546;2022-07-23T02:56:21;101182.34;;;17.10;71.60
40788;BME280;26497;52.494;7.546;2022-07-23T02:58:48;101183.81;;;17.25;70.86
40788;BME280;26497;52.494;7.546;2022-07-23T03:01:15;101187.75;;;17.07;71.42
40788;BME280;26497;52.494;7.546;2022-07-23T03:03:42;101189.53;;;17.07;71.52
40788;BME280;26497;52.494;7.546;2022-07-23T03:06:10;101185.19;;;17.01;71.13
40788;BME280;26497;52.494;7.546;2022-07-23T03:08:37;101183.50;;;16.94;71.66
40788;BME280;26497;52.494;7.546;2022-07-23T03:11:04;101192.47;;;16.90;71.70
40788;BME280;26497;52.494;7.546;2022-07-23T03:13:36;101185.47;;;16.84;71.68
40788;BME280;26497;52.494;7.546;2022-07-23T03:16:04;101193.53;;;16.81;71.73
40788;BME280;26497;52.494;7.546;2022-07-23T03:18:31;101181.13;;;16.80;71.31
40788;BME280;26497;52.494;7.546;2022-07-23T03:20:58;101191.81;;;16.77;71.76
40788;BME280;26497;52.494;7.546;2022-07-23T03:23:27;101189.22;;;16.74;71.90
40788;BME280;26497;52.494;7.546;2022-07-23T03:25:54;101190.97;;;16.75;71.97
40788;BME280;26497;52.494;7.546;2022-07-23T03:28:20;101182.09;;;16.74;71.69
40788;BME280;26497;52.494;7.546;2022-07-23T03:30:48;101184.00;;;16.66;72.13
40788;BME280;26497;52.494;7.546;2022-07-23T03:33:16;101194.66;;;16.66;72.84
40788;BME280;26497;52.494;7.546;2022-07-23T03:35:44;101197.31;;;16.68;72.88
40788;BME280;26497;52.494;7.546;2022-07-23T03:38:11;101196.41;;;16.69;73.03
40788;BME280;26497;52.494;7.546;2022-07-23T03:40:40;101201.59;;;16.76;72.99
40788;BME280;26497;52.494;7.546;2022-07-23T03:43:07;101197.47;;;17.08;71.50
40788;BME280;26497;52.494;7.546;2022-07-23T03:45:34;101200.03;;;17.16;70.80
40788;BME280;26497;52.494;7.546;2022-07-23T03:48:01;101205.84;;;16.88;71.58
40788;BME280;26497;52.494;7.546;2022-07-23T03:50:28;101207.63;;;16.86;70.85
40788;BME280;26497;52.494;7.546;2022-07-23T03:52:55;101203.22;;;16.84;70.47
40788;BME280;26497;52.494;7.546;2022-07-23T03:55:21;101199.81;;;16.75;70.51
40788;BME280;26497;52.494;7.546;2022-07-23T03:57:50;101201.59;;;16.76;70.36
40788;BME280;26497;52.494;7.546;2022-07-23T04:00:17;101200.94;;;16.63;71.21
40788;BME280;26497;52.494;7.546;2022-07-23T04:02:44;101195.56;;;16.65;71.24
40788;BME280;26497;52.494;7.546;2022-07-23T04:05:11;101201.59;;;16.76;70.54
40788;BME280;26497;52.494;7.546;2022-07-23T04:07:38;101188.09;;;16.86;70.00
40788;BME280;26497;52.494;7.546;2022-07-23T04:10:07;101198.81;;;16.83;70.13
40788;BME280;26497;52.494;7.546;2022-07-23T04:12:34;101197.34;;;16.64;70.98
40788;BME280;26497;52.494;7.546;2022-07-23T04:15:03;101203.38;;;16.74;71.40
40788;BME280;26497;52.494;7.546;2022-07-23T04:17:31;101201.50;;;16.81;71.30
40788;BME280;26497;52.494;7.546;2022-07-23T04:19:58;101198.91;;;16.76;72.51
40788;BME280;26497;52.494;7.546;2022-07-23T04:22:24;101203.22;;;16.84;72.99
40788;BME280;26497;52.494;7.546;2022-07-23T04:24:52;101198.50;;;17.03;72.84
40788;BME280;26497;52.494;7.546;2022-07-23T04:27:19;101189.38;;;17.16;72.44
40788;BME280;26497;52.494;7.546;2022-07-23T04:29:46;101199.00;;;17.22;72.31
40788;BME280;26497;52.494;7.546;2022-07-23T04:32:14;101192.72;;;17.26;72.12
40788;BME280;26497;52.494;7.546;2022-07-23T04:34:41;101187.38;;;17.26;72.51
40788;BME280;26497;52.494;7.546;2022-07-23T04:37:08;101190.59;;;17.44;72.29
40788;BME280;26497;52.494;7.546;2022-07-23T04:39:35;101206.53;;;17.45;72.55
40788;BME280;26497;52.494;7.546;2022-07-23T04:42:02;101196.47;;;17.60;73.13
40788;BME280;26497;52.494;7.546;2022-07-23T04:44:29;101203.13;;;17.81;73.40
40788;BME280;26497;52.494;7.546;2022-07-23T04:46:56;101202.72;;;18.00;74.09
40788;BME280;26497;52.494;7.546;2022-07-23T04:49:24;101209.72;;;18.43;75.58
40788;BME280;26497;52.494;7.546;2022-07-23T04:51:51;101213.38;;;19.10;76.66
40788;BME280;26497;52.494;7.546;2022-07-23T04:54:18;101205.03;;;19.84;75.38
40788;BME280;26497;52.494;7.546;2022-07-23T04:56:45;101207.75;;;20.41;73.34
40788;BME280;26497;52.494;7.546;2022-07-23T04:59:12;101207.41;;;20.79;72.54
40788;BME280;26497;52.494;7.546;2022-07-23T05:01:39;101193.94;;;21.31;72.17
40788;BME280;26497;52.494;7.546;2022-07-23T05:04:07;101199.41;;;21.51;69.55
40788;BME280;26497;52.494;7.546;2022-07-23T05:06:35;101208.41;;;21.50;68.29
40788;BME280;26497;52.494;7.546;2022-07-23T05:09:02;101214.41;;;21.08;65.45
40788;BME280;26497;52.494;7.546;2022-07-23T05:11:29;101211.09;;;21.01;66.53
40788;BME280;26497;52.494;7.546;2022-07-23T05:13:56;101202.56;;;21.39;67.47
40788;BME280;26497;52.494;7.546;2022-07-23T05:16:23;101209.00;;;21.83;66.75
40788;BME280;26497;52.494;7.546;2022-07-23T05:18:50;101209.41;;;22.18;65.14
40788;BME280;26497;52.494;7.546;2022-07-23T05:21:17;101209.66;;;22.56;62.79
40788;BME280;26497;52.494;7.546;2022-07-23T05:23:46;101219.38;;;22.81;59.21
40788;BME280;26497;52.494;7.546;2022-07-23T05:26:13;101218.44;;;23.03;58.88
40788;BME280;26497;52.494;7.546;2022-07-23T05:28:40;101218.28;;;23.26;58.03
40788;BME280;26497;52.494;7.546;2022-07-23T05:31:06;101214.84;;;23.44;58.61
40788;BME280;26497;52.494;7.546;2022-07-23T05:33:33;101216.38;;;23.49;58.90
40788;BME280;26497;52.494;7.546;2022-07-23T05:36:01;101216.22;;;23.52;59.09
40788;BME280;26497;52.494;7.546;2022-07-23T05:38:29;101214.88;;;23.63;59.16
40788;BME280;26497;52.494;7.546;2022-07-23T05:40:58;101224.91;;;23.78;56.92
40788;BME280;26497;52.494;7.546;2022-07-23T05:43:25;101227.56;;;23.99;57.64
40788;BME280;26497;52.494;7.546;2022-07-23T05:45:52;101230.97;;;24.22;55.01
40788;BME280;26497;52.494;7.546;2022-07-23T05:48:20;101220.38;;;24.73;53.23
40788;BME280;26497;52.494;7.546;2022-07-23T05:50:47;101222.78;;;25.30;52.59
40788;BME280;26497;52.494;7.546;2022-07-23T05:53:14;101228.22;;;25.96;49.93
40788;BME280;26497;52.494;7.546;2022-07-23T05:55:41;101230.59;;;26.65;48.59
40788;BME280;26497;52.494;7.546;2022-07-23T05:58:10;101236.16;;;27.23;43.97
40788;BME280;26497;52.494;7.546;2022-07-23T06:00:37;101240.38;;;27.72;42.92
40788;BME280;26497;52.494;7.546;2022-07-23T06:03:04;101237.59;;;28.01;41.74
40788;BME280;26497;52.494;7.546;2022-07-23T06:05:32;101236.94;;;27.98;41.25
40788;BME280;26497;52.494;7.546;2022-07-23T06:07:59;101235.06;;;27.56;40.00
40788;BME280;26497;52.494;7.546;2022-07-23T06:10:26;101240.25;;;27.16;41.12
40788;BME280;26497;52.494;7.546;2022-07-23T06:12:53;101239.56;;;26.82;42.24
40788;BME280;26497;52.494;7.546;2022-07-23T06:15:21;101242.44;;;26.78;44.47
40788;BME280;26497;52.494;7.546;2022-07-23T06:17:48;101239.31;;;26.70;45.31
40788;BME280;26497;52.494;7.546;2022-07-23T06:20:15;101239.75;;;26.62;46.69
40788;BME280;26497;52.494;7.546;2022-07-23T06:22:42;101239.69;;;26.64;46.39
40788;BME280;26497;52.494;7.546;2022-07-23T06:25:09;101235.28;;;26.77;45.17
40788;BME280;26497;52.494;7.546;2022-07-23T06:27:36;101245.16;;;27.09;43.08
40788;BME280;26497;52.494;7.546;2022-07-23T06:30:04;101242.72;;;27.64;41.65
40788;BME280;26497;52.494;7.546;2022-07-23T06:32:32;101246.31;;;28.48;40.24
40788;BME280;26497;52.494;7.546;2022-07-23T06:34:59;101246.09;;;28.92;38.76
40788;BME280;26497;52.494;7.546;2022-07-23T06:37:26;101242.09;;;29.75;36.85
40788;BME280;26497;52.494;7.546;2022-07-23T06:39:53;101254.19;;;30.70;34.45
40788;BME280;26497;52.494;7.546;2022-07-23T06:42:21;101262.81;;;31.69;31.92
40788;BME280;26497;52.494;7.546;2022-07-23T06:44:48;101260.38;;;32.65;30.13
40788;BME280;26497;52.494;7.546;2022-07-23T06:47:15;101250.03;;;33.23;28.39
40788;BME280;26497;52.494;7.546;2022-07-23T06:49:43;101256.34;;;34.17;27.84
40788;BME280;26497;52.494;7.546;2022-07-23T06:52:10;101251.06;;;35.04;26.11
40788;BME280;26497;52.494;7.546;2022-07-23T06:54:37;101258.41;;;35.89;25.04
40788;BME280;26497;52.494;7.546;2022-07-23T06:57:04;101258.50;;;36.61;23.69
40788;BME280;26497;52.494;7.546;2022-07-23T06:59:31;101263.84;;;36.99;22.64
40788;BME280;26497;52.494;7.546;2022-07-23T07:01:58;101263.97;;;37.24;22.18
40788;BME280;26497;52.494;7.546;2022-07-23T07:04:25;101264.16;;;37.22;21.74
40788;BME280;26497;52.494;7.546;2022-07-23T07:06:54;101266.34;;;37.18;22.46
40788;BME280;26497;52.494;7.546;2022-07-23T07:09:21;101273.03;;;37.42;21.84
40788;BME280;26497;52.494;7.546;2022-07-23T07:11:48;101267.28;;;37.54;21.63
40788;BME280;26497;52.494;7.546;2022-07-23T07:14:15;101267.72;;;37.75;20.99
40788;BME280;26497;52.494;7.546;2022-07-23T07:16:42;101267.00;;;37.39;21.03
40788;BME280;26497;52.494;7.546;2022-07-23T07:19:09;101268.81;;;37.30;21.72
40788;BME280;26497;52.494;7.546;2022-07-23T07:21:36;101267.50;;;37.60;21.87
40788;BME280;26497;52.494;7.546;2022-07-23T07:24:06;101253.59;;;38.30;21.06
40788;BME280;26497;52.494;7.546;2022-07-23T07:26:33;101260.16;;;38.37;20.24
40788;BME280;26497;52.494;7.546;2022-07-23T07:29:00;101263.78;;;38.29;20.03
40788;BME280;26497;52.494;7.546;2022-07-23T07:31:27;101267.56;;;38.37;20.52
40788;BME280;26497;52.494;7.546;2022-07-23T07:33:54;101267.59;;;37.51;20.82
40788;BME280;26497;52.494;7.546;2022-07-23T07:36:22;101266.78;;;37.32;21.27
40788;BME280;26497;52.494;7.546;2022-07-23T07:38:49;101264.00;;;37.50;20.60
40788;BME280;26497;52.494;7.546;2022-07-23T07:41:17;101262.91;;;38.29;20.63
40788;BME280;26497;52.494;7.546;2022-07-23T07:43:48;101265.59;;;38.04;20.90
40788;BME280;26497;52.494;7.546;2022-07-23T07:46:15;101270.66;;;37.74;20.68
40788;BME280;26497;52.494;7.546;2022-07-23T07:48:42;101268.13;;;38.40;20.35
40788;BME280;26497;52.494;7.546;2022-07-23T07:51:09;101277.06;;;38.42;19.76
40788;BME280;26497;52.494;7.546;2022-07-23T07:53:36;101277.63;;;38.87;19.87
40788;BME280;26497;52.494;7.546;2022-07-23T07:56:04;101282.59;;;38.75;20.19
40788;BME280;26497;52.494;7.546;2022-07-23T07:58:32;101275.03;;;38.69;19.54
40788;BME280;26497;52.494;7.546;2022-07-23T08:00:59;101286.91;;;37.94;20.41
40788;BME280;26497;52.494;7.546;2022-07-23T08:03:28;101299.94;;;36.68;21.86
40788;BME280;26497;52.494;7.546;2022-07-23T08:05:55;101288.50;;;35.23;22.77
40788;BME280;26497;52.494;7.546;2022-07-23T08:08:22;101288.84;;;35.57;23.72
40788;BME280;26497;52.494;7.546;2022-07-23T08:10:49;101291.28;;;36.81;21.87
40788;BME280;26497;52.494;7.546;2022-07-23T08:13:16;101281.78;;;38.07;21.69
40788;BME280;26497;52.494;7.546;2022-07-23T08:15:44;101286.06;;;38.94;20.19
40788;BME280;26497;52.494;7.546;2022-07-23T08:18:11;101293.69;;;37.73;21.01
40788;BME280;26497;52.494;7.546;2022-07-23T08:20:38;101293.22;;;35.50;21.69
40788;BME280;26497;52.494;7.546;2022-07-23T08:23:07;101296.06;;;33.39;24.86
40788;BME280;26497;52.494;7.546;2022-07-23T08:25:38;101298.66;;;32.54;26.16
40788;BME280;26497;52.494;7.546;2022-07-23T08:28:09;101289.06;;;33.87;25.24
40788;BME280;26497;52.494;7.546;2022-07-23T08:30:37;101297.88;;;35.20;23.35
40788;BME280;26497;52.494;7.546;2022-07-23T08:33:08;101298.53;;;36.64;21.89
40788;BME280;26497;52.494;7.546;2022-07-23T08:35:40;101302.47;;;36.15;21.50
40788;BME280;26497;52.494;7.546;2022-07-23T08:38:09;101310.84;;;34.49;23.81
40788;BME280;26497;52.494;7.546;2022-07-23T08:40:39;101318.34;;;32.37;25.38
40788;BME280;26497;52.494;7.546;2022-07-23T08:43:08;101315.09;;;31.16;27.43
40788;BME280;26497;52.494;7.546;2022-07-23T08:45:38;101314.03;;;31.77;27.69
40788;BME280;26497;52.494;7.546;2022-07-23T08:48:09;101301.97;;;34.06;24.80
40788;BME280;26497;52.494;7.546;2022-07-23T08:50:37;101303.38;;;34.71;24.07
40788;BME280;26497;52.494;7.546;2022-07-23T08:53:09;101304.97;;;34.54;24.75
40788;BME280;26497;52.494;7.546;2022-07-23T08:55:36;101307.59;;;34.15;24.07
40788;BME280;26497;52.494;7.546;2022-07-23T08:58:03;101301.59;;;35.49;23.70
40788;BME280;26497;52.494;7.546;2022-07-23T09:00:30;101297.88;;;36.88;22.24
40788;BME280;26497;52.494;7.546;2022-07-23T09:02:57;101304.84;;;38.14;20.53
40788;BME280;26497;52.494;7.546;2022-07-23T09:05:26;101306.88;;;37.69;20.77
40788;BME280;26497;52.494;7.546;2022-07-23T09:08:11;101312.00;;;36.57;21.56
40788;BME280;26497;52.494;7.546;2022-07-23T09:10:51;101314.69;;;35.45;22.87
40788;BME280;26497;52.494;7.546;2022-07-23T09:13:30;101311.97;;;36.21;23.16
40788;BME280;26497;52.494;7.546;2022-07-23T09:16:00;101312.63;;;37.76;20.13
40788;BME280;26497;52.494;7.546;2022-07-23T09:18:37;101308.59;;;39.39;18.34
40788;BME280;26497;52.494;7.546;2022-07-23T09:21:23;101304.34;;;40.24;17.29
40788;BME280;26497;52.494;7.546;2022-07-23T09:23:57;101302.75;;;38.84;18.68
40788;BME280;26497;52.494;7.546;2022-07-23T09:26:34;101312.50;;;37.07;19.69
40788;BME280;26497;52.494;7.546;2022-07-23T09:29:09;101315.56;;;35.55;22.16
40788;BME280;26497;52.494;7.546;2022-07-23T09:31:49;101313.69;;;34.28;24.44
40788;BME280;26497;52.494;7.546;2022-07-23T09:34:20;101309.59;;;33.29;24.85
40788;BME280;26497;52.494;7.546;2022-07-23T09:36:51;101310.13;;;34.47;24.05
40788;BME280;26497;52.494;7.546;2022-07-23T09:39:26;101300.22;;;36.00;20.88
40788;BME280;26497;52.494;7.546;2022-07-23T09:41:54;101299.88;;;36.13;21.71
40788;BME280;26497;52.494;7.546;2022-07-23T09:44:22;101309.47;;;35.62;23.02
40788;BME280;26497;52.494;7.546;2022-07-23T09:46:50;101313.63;;;34.79;23.97
40788;BME280;26497;52.494;7.546;2022-07-23T09:49:20;101316.41;;;34.18;24.84
40788;BME280;26497;52.494;7.546;2022-07-23T09:51:54;101318.94;;;33.69;24.70
40788;BME280;26497;52.494;7.546;2022-07-23T09:54:29;101312.34;;;35.03;22.15
40788;BME280;26497;52.494;7.546;2022-07-23T09:57:01;101317.34;;;36.95;20.78
40788;BME280;26497;52.494;7.546;2022-07-23T09:59:30;101322.59;;;38.20;19.84
40788;BME280;26497;52.494;7.546;2022-07-23T10:01:59;101316.34;;;37.67;19.52
40788;BME280;26497;52.494;7.546;2022-07-23T10:04:28;101313.97;;;38.06;19.88
40788;BME280;26497;52.494;7.546;2022-07-23T10:06:59;101302.28;;;38.97;19.18
40788;BME280;26497;52.494;7.546;2022-07-23T10:09:29;101305.50;;;38.00;20.41
40788;BME280;26497;52.494;7.546;2022-07-23T10:11:58;101302.25;;;37.70;20.69
40788;BME280;26497;52.494;7.546;2022-07-23T10:14:31;101312.69;;;38.44;19.67
40788;BME280;26497;52.494;7.546;2022-07-23T10:17:01;101302.16;;;37.88;18.21
40788;BME280;26497;52.494;7.546;2022-07-23T10:19:28;101312.25;;;38.14;18.94
40788;BME280;26497;52.494;7.546;2022-07-23T10:22:00;101301.69;;;38.69;18.60
40788;BME280;26497;52.494;7.546;2022-07-23T10:24:47;101304.84;;;38.99;19.05
40788;BME280;26497;52.494;7.546;2022-07-23T10:27:51;101306.34;;;39.34;19.41
40788;BME280;26497;52.494;7.546;2022-07-23T10:30:30;101294.53;;;39.65;18.52
40788;BME280;26497;52.494;7.546;2022-07-23T10:33:15;101307.72;;;40.35;17.30
40788;BME280;26497;52.494;7.546;2022-07-23T10:35:50;101305.19;;;39.85;17.90
40788;BME280;26497;52.494;7.546;2022-07-23T10:38:26;101302.16;;;38.39;19.86
40788;BME280;26497;52.494;7.546;2022-07-23T10:40:56;101302.59;;;38.86;19.20
40788;BME280;26497;52.494;7.546;2022-07-23T10:43:24;101305.69;;;38.83;19.26
40788;BME280;26497;52.494;7.546;2022-07-23T10:45:51;101310.13;;;38.50;19.27
40788;BME280;26497;52.494;7.546;2022-07-23T10:48:20;101301.00;;;38.83;19.60
40788;BME280;26497;52.494;7.546;2022-07-23T10:51:09;101303.66;;;38.93;19.01
40788;BME280;26497;52.494;7.546;2022-07-23T10:54:05;101301.22;;;38.98;19.53
40788;BME280;26497;52.494;7.546;2022-07-23T11:00:23;101308.94;;;38.70;19.62
40788;BME280;26497;52.494;7.546;2022-07-23T11:02:52;101297.75;;;38.63;19.13
40788;BME280;26497;52.494;7.546;2022-07-23T11:05:21;101302.34;;;39.62;17.72
40788;BME280;26497;52.494;7.546;2022-07-23T11:10:55;101304.75;;;38.32;19.86
40788;BME280;26497;52.494;7.546;2022-07-23T11:13:48;101307.44;;;38.16;19.95
40788;BME280;26497;52.494;7.546;2022-07-23T11:16:25;101301.16;;;38.40;19.13
40788;BME280;26497;52.494;7.546;2022-07-23T11:19:06;101302.75;;;38.00;19.53
40788;BME280;26497;52.494;7.546;2022-07-23T11:21:52;101313.75;;;38.00;19.24
40788;BME280;26497;52.494;7.546;2022-07-23T11:24:21;101303.06;;;37.36;20.59
40788;BME280;26497;52.494;7.546;2022-07-23T11:27:00;101303.06;;;37.09;20.13
40788;BME280;26497;52.494;7.546;2022-07-23T11:29:48;101309.69;;;36.80;21.07
40788;BME280;26497;52.494;7.546;2022-07-23T11:32:28;101298.22;;;37.56;20.81
40788;BME280;26497;52.494;7.546;2022-07-23T11:34:56;101301.00;;;38.67;19.69
40788;BME280;26497;52.494;7.546;2022-07-23T11:37:33;101298.94;;;38.69;18.75
40788;BME280;26497;52.494;7.546;2022-07-23T11:40:06;101294.28;;;38.53;18.69
40788;BME280;26497;52.494;7.546;2022-07-23T11:42:37;101302.56;;;38.53;20.12
40788;BME280;26497;52.494;7.546;2022-07-23T11:45:07;101299.88;;;37.83;19.14
40788;BME280;26497;52.494;7.546;2022-07-23T11:47:35;101307.63;;;37.27;19.99
40788;BME280;26497;52.494;7.546;2022-07-23T11:50:05;101303.69;;;37.47;20.39
40788;BME280;26497;52.494;7.546;2022-07-23T11:52:33;101301.13;;;38.32;19.36
40788;BME280;26497;52.494;7.546;2022-07-23T11:55:03;101303.44;;;38.86;18.31
40788;BME280;26497;52.494;7.546;2022-07-23T11:57:34;101304.28;;;39.36;20.17
40788;BME280;26497;52.494;7.546;2022-07-23T12:00:07;101301.00;;;39.98;18.63
40788;BME280;26497;52.494;7.546;2022-07-23T12:02:36;101306.00;;;39.94;17.76
40788;BME280;26497;52.494;7.546;2022-07-23T12:05:05;101308.78;;;39.86;18.35
40788;BME280;26497;52.494;7.546;2022-07-23T12:07:34;101304.31;;;39.85;18.63
40788;BME280;26497;52.494;7.546;2022-07-23T12:10:04;101300.06;;;39.65;18.33
40788;BME280;26497;52.494;7.546;2022-07-23T12:12:36;101300.78;;;39.51;19.08
40788;BME280;26497;52.494;7.546;2022-07-23T12:15:07;101308.09;;;39.11;19.05
40788;BME280;26497;52.494;7.546;2022-07-23T12:17:38;101305.16;;;39.37;18.81
40788;BME280;26497;52.494;7.546;2022-07-23T12:20:08;101304.94;;;39.47;18.05
40788;BME280;26497;52.494;7.546;2022-07-23T12:22:38;101301.78;;;39.66;17.97
40788;BME280;26497;52.494;7.546;2022-07-23T12:25:09;101304.31;;;39.85;17.90
40788;BME280;26497;52.494;7.546;2022-07-23T12:27:36;101299.88;;;40.15;18.23
40788;BME280;26497;52.494;7.546;2022-07-23T12:30:20;101306.06;;;40.17;18.30
40788;BME280;26497;52.494;7.546;2022-07-23T12:32:50;101306.34;;;39.91;18.39
40788;BME280;26497;52.494;7.546;2022-07-23T12:35:18;101301.00;;;39.98;17.82
40788;BME280;26497;52.494;7.546;2022-07-23T12:37:47;101303.16;;;39.71;19.18
40788;BME280;26497;52.494;7.546;2022-07-23T12:40:23;101304.94;;;39.55;18.83
40788;BME280;26497;52.494;7.546;2022-07-23T12:42:53;101301.63;;;40.63;18.69
40788;BME280;26497;52.494;7.546;2022-07-23T12:45:22;101293.69;;;40.60;17.83
40788;BME280;26497;52.494;7.546;2022-07-23T12:48:00;101302.78;;;39.82;18.50
40788;BME280;26497;52.494;7.546;2022-07-23T12:50:39;101298.19;;;40.61;17.29
40788;BME280;26497;52.494;7.546;2022-07-23T12:53:12;101292.63;;;40.92;17.60
40788;BME280;26497;52.494;7.546;2022-07-23T12:55:42;101306.06;;;40.95;18.15
40788;BME280;26497;52.494;7.546;2022-07-23T12:58:13;101305.19;;;40.95;17.72
40788;BME280;26497;52.494;7.546;2022-07-23T13:01:01;101310.56;;;40.96;17.50
40788;BME280;26497;52.494;7.546;2022-07-23T13:03:32;101316.97;;;40.10;17.68
40788;BME280;26497;52.494;7.546;2022-07-23T13:06:01;101300.63;;;39.52;19.82
40788;BME280;26497;52.494;7.546;2022-07-23T13:08:31;101307.75;;;39.87;19.50